createdAt,value
2023-08-22T00:01:24.737Z,89.85
2023-08-22T00:04:26.826Z,89.99
2023-08-22T00:07:28.485Z,90.04
2023-08-22T00:10:30.523Z,90.34
2023-08-22T00:13:32.597Z,90.18
2023-08-22T00:16:34.823Z,89.98
2023-08-22T00:19:37.082Z,90.23
2023-08-22T00:22:39.272Z,90.49
2023-08-22T00:25:41.500Z,90.65
2023-08-22T00:28:43.555Z,90.73
2023-08-22T00:31:45.619Z,91.17
2023-08-22T00:34:47.730Z,91.48
2023-08-22T00:37:49.846Z,91.31
2023-08-22T00:40:52.031Z,91.51
2023-08-22T00:43:54.127Z,91.08
2023-08-22T00:46:56.607Z,91.56
2023-08-22T00:49:58.267Z,91.30
2023-08-22T00:53:02.315Z,91.03
2023-08-22T00:56:04.532Z,91.58
2023-08-22T00:59:07.000Z,91.54
2023-08-22T01:02:09.547Z,91.39
2023-08-22T01:05:11.543Z,91.94
2023-08-22T01:08:21.907Z,91.97
2023-08-22T01:11:29.029Z,92.02
2023-08-22T01:14:34.385Z,92.23
2023-08-22T01:17:38.723Z,92.71
2023-08-22T01:20:41.082Z,92.77
2023-08-22T01:23:43.204Z,93.16
2023-08-22T01:26:48.524Z,93.07
2023-08-22T01:29:57.341Z,93.68
2023-08-22T01:33:07.477Z,94.00
2023-08-22T01:36:11.853Z,93.87
2023-08-22T01:39:17.551Z,93.73
2023-08-22T01:42:20.155Z,93.75
2023-08-22T01:45:23.303Z,93.74
2023-08-22T01:48:25.431Z,93.86
2023-08-22T01:51:27.549Z,93.75
2023-08-22T01:54:29.644Z,93.92
2023-08-22T01:57:31.371Z,94.06
2023-08-22T02:00:34.777Z,94.20
2023-08-22T02:03:37.319Z,94.14
2023-08-22T02:06:39.652Z,94.14
2023-08-22T02:09:41.280Z,94.26
2023-08-22T02:12:42.962Z,94.30
2023-08-22T02:15:44.633Z,94.63
2023-08-22T02:18:47.026Z,94.74
2023-08-22T02:21:49.592Z,94.86
2023-08-22T02:24:51.256Z,95.07
2023-08-22T02:27:53.731Z,94.81
2023-08-22T02:30:57.055Z,95.19
2023-08-22T02:33:59.616Z,95.10
2023-08-22T02:37:01.741Z,95.13
2023-08-22T02:40:07.250Z,95.21
2023-08-22T02:43:09.819Z,95.16
2023-08-22T02:46:11.897Z,95.27
2023-08-22T02:49:13.851Z,95.21
2023-08-22T02:52:16.005Z,94.96
2023-08-22T02:55:18.621Z,95.58
2023-08-22T02:58:20.744Z,95.46
2023-08-22T03:01:22.982Z,95.72
2023-08-22T03:04:24.697Z,95.96
2023-08-22T03:07:26.968Z,95.98
2023-08-22T03:10:28.853Z,95.71
2023-08-22T03:13:32.471Z,96.12
2023-08-22T03:16:35.029Z,95.91
2023-08-22T03:19:37.123Z,96.15
2023-08-22T03:22:39.916Z,95.95
2023-08-22T03:25:42.941Z,96.15
2023-08-22T03:28:45.427Z,96.05
2023-08-22T03:31:47.786Z,96.21
2023-08-22T03:34:50.818Z,96.29
2023-08-22T03:37:52.557Z,96.38
2023-08-22T03:40:57.379Z,96.31
2023-08-22T03:44:00.120Z,96.44
2023-08-22T03:47:03.529Z,96.52
2023-08-22T03:50:18.943Z,96.55
2023-08-22T03:53:21.072Z,96.54
2023-08-22T03:56:23.529Z,96.50
2023-08-22T03:59:25.620Z,96.42
2023-08-22T04:02:27.341Z,96.34
2023-08-22T04:05:29.507Z,96.84
2023-08-22T04:08:31.623Z,96.96
2023-08-22T04:11:33.651Z,97.11
2023-08-22T04:14:35.794Z,96.92
2023-08-22T04:17:40.059Z,97.23
2023-08-22T04:20:44.429Z,97.31
2023-08-22T04:23:46.599Z,97.40
2023-08-22T04:26:48.246Z,97.44
2023-08-22T04:29:50.298Z,97.89
2023-08-22T04:32:53.796Z,98.06
2023-08-22T04:35:56.346Z,97.62
2023-08-22T04:38:58.104Z,97.32
2023-08-22T04:42:00.685Z,97.77
2023-08-22T04:45:06.449Z,97.52
2023-08-22T04:48:09.243Z,97.39
2023-08-22T04:51:12.113Z,97.54
2023-08-22T04:54:14.244Z,97.41
2023-08-22T04:57:16.496Z,97.37
2023-08-22T05:00:18.877Z,97.29
2023-08-22T05:03:20.647Z,97.35
2023-08-22T05:06:23.693Z,97.28
2023-08-22T05:09:25.443Z,97.23
2023-08-22T05:12:27.719Z,97.97
2023-08-22T05:15:29.896Z,97.39
2023-08-22T05:18:36.447Z,97.71
2023-08-22T05:21:38.706Z,97.27
2023-08-22T05:24:41.697Z,97.22
2023-08-22T05:27:45.298Z,97.47
2023-08-22T05:30:47.500Z,97.65
2023-08-22T05:33:50.413Z,97.50
2023-08-22T05:36:52.716Z,97.20
2023-08-22T05:39:55.667Z,97.22
2023-08-22T05:42:57.416Z,96.82
2023-08-22T05:46:01.896Z,96.36
2023-08-22T05:49:04.440Z,96.38
2023-08-22T05:52:06.979Z,96.24
2023-08-22T05:55:09.669Z,96.10
2023-08-22T05:58:13.205Z,96.29
2023-08-22T06:01:16.031Z,96.23
2023-08-22T06:04:19.357Z,96.25
2023-08-22T06:07:21.561Z,96.62
2023-08-22T06:10:26.600Z,96.75
2023-08-22T06:13:28.766Z,96.42
2023-08-22T06:16:30.560Z,96.39
2023-08-22T06:19:33.540Z,96.39
2023-08-22T06:22:35.369Z,96.38
2023-08-22T06:25:38.080Z,96.53
2023-08-22T06:28:41.300Z,96.26
2023-08-22T06:31:44.370Z,96.52
2023-08-22T06:34:46.170Z,96.90
2023-08-22T06:37:48.287Z,96.88
2023-08-22T06:40:51.219Z,96.86
2023-08-22T06:43:53.294Z,96.53
2023-08-22T06:46:56.259Z,96.43
2023-08-22T06:49:58.010Z,95.99
2023-08-22T06:53:03.073Z,95.73
2023-08-22T06:56:05.146Z,95.75
2023-08-22T06:59:07.354Z,95.22
2023-08-22T07:02:09.471Z,95.00
2023-08-22T07:05:13.060Z,94.82
2023-08-22T07:08:15.843Z,94.29
2023-08-22T07:11:18.085Z,94.06
2023-08-22T07:14:19.890Z,93.65
2023-08-22T07:17:21.968Z,93.50
2023-08-22T07:20:23.610Z,93.08
2023-08-22T07:23:25.434Z,92.74
2023-08-22T07:26:27.887Z,91.90
2023-08-22T07:29:30.251Z,91.57
2023-08-22T07:32:34.139Z,91.06
2023-08-22T07:35:36.091Z,90.71
2023-08-22T07:38:38.176Z,90.36
2023-08-22T07:41:40.290Z,89.89
2023-08-22T07:44:42.326Z,88.70
2023-08-22T07:47:44.648Z,88.32
2023-08-22T07:50:46.866Z,87.93
2023-08-22T07:53:48.966Z,87.25
2023-08-22T07:56:56.648Z,87.14
2023-08-22T08:00:10.391Z,86.73
2023-08-22T08:03:15.212Z,85.99
2023-08-22T08:06:19.353Z,86.32
2023-08-22T08:09:34.457Z,84.39
2023-08-22T08:12:37.406Z,83.34
2023-08-22T08:15:40.737Z,82.42
2023-08-22T08:18:42.482Z,82.82
2023-08-22T08:21:44.765Z,81.41
2023-08-22T08:24:46.902Z,81.96
2023-08-22T08:27:50.925Z,80.35
2023-08-22T08:30:53.376Z,80.92
2023-08-22T08:33:55.519Z,80.05
2023-08-22T08:36:57.635Z,79.76
2023-08-22T08:39:59.731Z,79.99
2023-08-22T08:43:02.544Z,79.24
2023-08-22T08:46:05.214Z,78.92
2023-08-22T08:49:06.959Z,79.01
2023-08-22T08:52:11.896Z,78.77
2023-08-22T08:55:13.944Z,78.11
2023-08-22T08:58:15.595Z,78.02
2023-08-22T09:01:18.701Z,77.31
2023-08-22T09:04:21.191Z,76.88
2023-08-22T09:07:23.128Z,76.77
2023-08-22T09:10:37.909Z,76.21
2023-08-22T09:13:55.551Z,76.36
2023-08-22T09:17:02.090Z,75.60
2023-08-22T09:20:11.752Z,75.20
2023-08-22T09:23:43.985Z,74.83
2023-08-22T09:26:48.484Z,74.53
2023-08-22T09:29:50.653Z,73.57
2023-08-22T09:33:01.101Z,72.87
2023-08-22T09:36:03.665Z,73.27
2023-08-22T09:39:07.027Z,72.75
2023-08-22T09:42:10.628Z,71.63
2023-08-22T09:45:12.784Z,71.38
2023-08-22T09:48:23.411Z,71.14
2023-08-22T09:51:25.930Z,71.19
2023-08-22T09:54:28.419Z,69.99
2023-08-22T09:57:32.215Z,69.62
2023-08-22T10:00:35.850Z,70.03
2023-08-22T10:03:38.447Z,70.25
2023-08-22T10:09:45.792Z,68.27
2023-08-22T10:12:56.920Z,68.02
2023-08-22T10:15:59.625Z,67.27
2023-08-22T10:19:04.903Z,67.88
2023-08-22T10:22:14.495Z,66.28
2023-08-22T10:25:17.254Z,65.14
2023-08-22T10:28:21.848Z,64.73
2023-08-22T10:31:28.470Z,65.01
2023-08-22T10:34:36.363Z,64.73
2023-08-22T10:37:55.057Z,63.64
2023-08-22T10:40:57.197Z,63.62
2023-08-22T10:43:59.870Z,63.40
2023-08-22T10:47:07.100Z,62.59
2023-08-22T10:50:17.039Z,61.63
2023-08-22T10:53:24.703Z,60.40
2023-08-22T10:56:29.080Z,60.58
2023-08-22T10:59:30.845Z,60.34
2023-08-22T11:02:34.701Z,58.98
2023-08-22T11:05:37.412Z,59.81
2023-08-22T11:08:40.513Z,59.49
2023-08-22T11:11:42.883Z,58.72
2023-08-22T11:14:46.931Z,58.00
2023-08-22T11:17:51.534Z,56.07
2023-08-22T11:20:59.244Z,56.13
2023-08-22T11:24:02.288Z,56.24
2023-08-22T11:27:05.495Z,57.59
2023-08-22T11:30:16.906Z,57.53
2023-08-22T11:33:22.255Z,56.92
2023-08-22T11:36:27.993Z,55.84
2023-08-22T11:39:31.301Z,54.44
2023-08-22T11:42:35.444Z,53.40
2023-08-22T11:45:50.011Z,53.48
2023-08-22T11:48:53.769Z,53.54
2023-08-22T11:51:56.352Z,53.52
2023-08-22T11:55:10.175Z,52.60
2023-08-22T11:58:17.155Z,53.02
2023-08-22T12:01:22.086Z,53.67
2023-08-22T12:04:24.252Z,53.19
2023-08-22T12:07:28.045Z,53.54
2023-08-22T12:10:53.924Z,53.50
2023-08-22T12:13:59.047Z,54.14
2023-08-22T12:17:02.156Z,53.19
2023-08-22T12:20:06.020Z,52.00
2023-08-22T12:23:18.620Z,52.23
2023-08-22T12:26:20.737Z,51.03
2023-08-22T12:29:22.520Z,51.17
2023-08-22T12:32:25.453Z,51.57
2023-08-22T12:35:28.617Z,51.66
2023-08-22T12:38:34.785Z,51.73
2023-08-22T12:41:42.239Z,51.56
2023-08-22T12:44:46.458Z,51.17
2023-08-22T12:47:51.047Z,51.18
2023-08-22T12:50:54.055Z,50.51
2023-08-22T12:53:56.471Z,50.81
2023-08-22T12:56:58.580Z,50.73
2023-08-22T13:00:02.538Z,50.43
2023-08-22T13:03:05.864Z,49.69
2023-08-22T13:06:09.080Z,49.51
2023-08-22T13:09:11.640Z,47.77
2023-08-22T13:12:13.397Z,47.98
2023-08-22T13:15:15.239Z,48.34
2023-08-22T13:18:18.403Z,48.08
2023-08-22T13:21:20.613Z,47.90
2023-08-22T13:24:22.796Z,46.74
2023-08-22T13:27:24.950Z,46.20
2023-08-22T13:30:27.750Z,46.93
2023-08-22T13:33:30.631Z,46.18
2023-08-22T13:36:33.006Z,45.08
2023-08-22T13:39:35.386Z,44.97
2023-08-22T13:42:39.090Z,43.59
2023-08-22T13:45:41.259Z,43.71
2023-08-22T13:48:43.463Z,42.74
2023-08-22T13:51:45.544Z,42.71
2023-08-22T13:54:47.171Z,41.78
2023-08-22T13:57:49.345Z,41.46
2023-08-22T14:00:51.635Z,40.59
2023-08-22T14:03:53.982Z,41.26
2023-08-22T14:06:55.642Z,41.35
2023-08-22T14:09:57.436Z,40.74
2023-08-22T14:12:59.589Z,39.95
2023-08-22T14:16:01.469Z,39.78
2023-08-22T14:19:03.445Z,38.76
2023-08-22T14:22:05.579Z,38.11
2023-08-22T14:25:08.172Z,38.30
2023-08-22T14:28:10.534Z,37.95
2023-08-22T14:31:12.703Z,38.25
2023-08-22T14:34:14.820Z,38.18
2023-08-22T14:37:22.799Z,38.05
2023-08-22T14:40:25.369Z,37.82
2023-08-22T14:43:30.662Z,36.98
2023-08-22T14:46:32.841Z,36.47
2023-08-22T14:49:34.943Z,36.34
2023-08-22T14:52:37.036Z,36.61
2023-08-22T14:55:38.722Z,35.92
2023-08-22T14:58:44.268Z,35.88
2023-08-22T15:01:46.217Z,34.82
2023-08-22T15:04:47.977Z,34.81
2023-08-22T15:07:50.401Z,35.22
2023-08-22T15:10:53.177Z,34.69
2023-08-22T15:13:55.973Z,34.42
2023-08-22T15:16:58.015Z,33.71
2023-08-22T15:20:00.299Z,33.06
2023-08-22T15:23:02.170Z,32.85
2023-08-22T15:26:05.200Z,32.71
2023-08-22T15:29:07.438Z,33.07
2023-08-22T15:32:09.656Z,32.95
2023-08-22T15:35:11.389Z,32.92
2023-08-22T15:38:14.851Z,32.57
2023-08-22T15:41:17.773Z,32.35
2023-08-22T15:44:21.146Z,32.32
2023-08-22T15:47:23.273Z,32.35
2023-08-22T15:50:24.940Z,32.56
2023-08-22T15:53:27.114Z,32.34
2023-08-22T15:56:29.381Z,31.96
2023-08-22T15:59:31.749Z,32.07
2023-08-22T16:02:33.660Z,32.15
2023-08-22T16:05:37.369Z,32.32
2023-08-22T16:08:39.497Z,32.41
2023-08-22T16:11:41.733Z,32.89
2023-08-22T16:14:43.874Z,32.58
2023-08-22T16:17:46.371Z,33.00
2023-08-22T16:20:52.017Z,33.08
2023-08-22T16:23:54.890Z,33.90
2023-08-22T16:26:56.582Z,34.29
2023-08-22T16:29:58.715Z,34.67
2023-08-22T16:33:00.922Z,35.20
2023-08-22T16:36:04.376Z,35.93
2023-08-22T16:39:06.639Z,36.16
2023-08-22T16:42:09.228Z,36.49
2023-08-22T16:45:12.415Z,37.06
2023-08-22T16:48:16.527Z,37.42
2023-08-22T16:51:19.025Z,37.70
2023-08-22T16:54:20.778Z,38.30
2023-08-22T16:57:23.569Z,38.31
2023-08-22T17:00:25.905Z,38.46
2023-08-22T17:03:28.505Z,38.80
2023-08-22T17:06:30.706Z,39.16
2023-08-22T17:09:32.863Z,39.39
2023-08-22T17:12:34.534Z,39.82
2023-08-22T17:15:36.726Z,40.14
2023-08-22T17:18:38.400Z,40.52
2023-08-22T17:21:41.518Z,40.76
2023-08-22T17:24:43.154Z,40.95
2023-08-22T17:27:45.183Z,41.28
2023-08-22T17:30:47.593Z,41.42
2023-08-22T17:33:50.079Z,42.27
2023-08-22T17:36:52.407Z,42.18
2023-08-22T17:39:54.231Z,42.80
2023-08-22T17:42:57.260Z,43.09
2023-08-22T17:45:59.673Z,43.44
2023-08-22T17:49:01.931Z,43.87
2023-08-22T17:52:04.699Z,44.02
2023-08-22T17:55:07.076Z,44.40
2023-08-22T17:58:09.296Z,44.72
2023-08-22T18:01:11.257Z,45.88
2023-08-22T18:04:13.227Z,45.97
2023-08-22T18:07:15.296Z,46.11
2023-08-22T18:10:17.749Z,47.02
2023-08-22T18:13:20.623Z,47.21
2023-08-22T18:16:23.640Z,46.64
2023-08-22T18:19:26.491Z,47.42
2023-08-22T18:22:28.618Z,47.99
2023-08-22T18:25:30.283Z,48.36
2023-08-22T18:28:33.244Z,48.60
2023-08-22T18:31:35.810Z,48.83
2023-08-22T18:34:40.362Z,49.10
2023-08-22T18:37:43.367Z,49.44
2023-08-22T18:40:46.209Z,49.91
2023-08-22T18:43:49.581Z,50.42
2023-08-22T18:46:51.328Z,50.76
2023-08-22T18:49:53.544Z,51.03
2023-08-22T18:52:55.204Z,51.33
2023-08-22T18:55:58.403Z,52.25
2023-08-22T18:59:01.638Z,53.47
2023-08-22T19:02:03.472Z,54.16
2023-08-22T19:05:06.863Z,55.10
2023-08-22T19:08:08.961Z,55.82
2023-08-22T19:11:11.449Z,56.70
2023-08-22T19:14:13.092Z,57.27
2023-08-22T19:17:15.377Z,57.84
2023-08-22T19:20:18.572Z,58.47
2023-08-22T19:23:21.209Z,59.32
2023-08-22T19:26:22.976Z,59.47
2023-08-22T19:29:25.070Z,59.22
2023-08-22T19:32:45.997Z,59.98
2023-08-22T19:35:49.393Z,60.12
2023-08-22T19:38:52.733Z,60.80
2023-08-22T19:41:54.457Z,61.09
2023-08-22T19:44:57.227Z,61.54
2023-08-22T19:47:59.401Z,61.92
2023-08-22T19:51:04.115Z,61.91
2023-08-22T19:54:08.843Z,61.84
2023-08-22T19:57:11.514Z,60.85
2023-08-22T20:00:16.994Z,61.54
2023-08-22T20:03:20.628Z,62.34
2023-08-22T20:06:29.401Z,62.29
2023-08-22T20:09:32.045Z,62.68
2023-08-22T20:12:33.991Z,63.12
2023-08-22T20:15:35.626Z,63.59
2023-08-22T20:18:37.281Z,63.79
2023-08-22T20:21:39.409Z,64.15
2023-08-22T20:24:41.014Z,63.58
2023-08-22T20:27:46.480Z,63.49
2023-08-22T20:30:53.825Z,63.57
2023-08-22T20:33:57.045Z,63.63
2023-08-22T20:36:59.127Z,63.50
2023-08-22T20:40:01.619Z,64.32
2023-08-22T20:43:03.831Z,64.97
2023-08-22T20:46:05.992Z,65.29
2023-08-22T20:49:08.142Z,64.86
2023-08-22T20:52:09.763Z,65.20
2023-08-22T20:55:12.466Z,64.93
2023-08-22T20:58:14.103Z,65.62
2023-08-22T21:01:17.313Z,65.96
2023-08-22T21:04:19.472Z,66.27
2023-08-22T21:07:22.461Z,67.41
2023-08-22T21:10:24.205Z,67.80
2023-08-22T21:13:26.407Z,68.32
2023-08-22T21:16:29.879Z,68.92
2023-08-22T21:19:32.523Z,69.47
2023-08-22T21:22:34.668Z,69.98
2023-08-22T21:25:37.682Z,70.37
2023-08-22T21:28:40.619Z,70.99
2023-08-22T21:31:43.119Z,71.37
2023-08-22T21:34:45.725Z,71.63
2023-08-22T21:37:47.828Z,72.13
2023-08-22T21:40:49.718Z,72.38
2023-08-22T21:43:51.738Z,72.50
2023-08-22T21:46:53.784Z,73.34
2023-08-22T21:49:58.096Z,73.67
2023-08-22T21:53:01.018Z,74.02
2023-08-22T21:56:03.110Z,74.39
2023-08-22T21:59:05.316Z,74.39
2023-08-22T22:02:07.010Z,74.72
2023-08-22T22:05:09.152Z,74.99
2023-08-22T22:08:11.235Z,74.86
2023-08-22T22:11:13.379Z,75.25
2023-08-22T22:14:16.165Z,75.34
2023-08-22T22:17:18.468Z,75.64
2023-08-22T22:20:20.530Z,75.85
2023-08-22T22:23:22.279Z,76.59
2023-08-22T22:26:24.299Z,76.48
2023-08-22T22:29:25.968Z,76.63
2023-08-22T22:32:28.580Z,76.83
2023-08-22T22:35:30.689Z,77.25
2023-08-22T22:38:32.942Z,77.47
2023-08-22T22:41:35.149Z,78.09
2023-08-22T22:44:37.220Z,78.28
2023-08-22T22:47:40.758Z,78.41
2023-08-22T22:50:42.495Z,78.60
2023-08-22T22:53:44.592Z,79.17
2023-08-22T22:56:46.278Z,79.61
2023-08-22T22:59:47.957Z,79.73
2023-08-22T23:02:50.435Z,79.71
2023-08-22T23:05:52.733Z,80.18
2023-08-22T23:08:54.345Z,80.60
2023-08-22T23:11:58.171Z,80.59
2023-08-22T23:15:04.929Z,80.64
2023-08-22T23:18:06.623Z,80.99
2023-08-22T23:21:09.975Z,80.62
2023-08-22T23:24:11.558Z,80.73
2023-08-22T23:27:14.320Z,81.03
2023-08-22T23:30:17.359Z,81.19
2023-08-22T23:33:19.430Z,81.32
2023-08-22T23:36:21.475Z,81.55
2023-08-22T23:39:23.109Z,81.59
2023-08-22T23:42:25.502Z,81.90
2023-08-22T23:45:30.929Z,82.08
2023-08-22T23:48:33.048Z,82.37
2023-08-22T23:51:36.040Z,82.20
2023-08-22T23:54:38.498Z,82.83
2023-08-22T23:57:40.869Z,82.67
